Time;durP1;ratioP1;P1;durP2;ratioP2;P2;SDS_P1;SDS_P2;PMS_P1;PMS_P2;Temp;Humidity;BMP_temperature;BMP_pressure;BME280_temperature;BME280_humidity;BME280_pressure;Samples;Min_cycle;Max_cycle;Signal;HPM_P1;HPM_P2
2022/03/03 00:02:01;;;;;;;38.80;23.35;;;;;;;;;;4977760;28;20035;-71
2022/03/03 00:04:28;;;;;;;41.78;25.60;;;;;;;;;;4980164;28;20090;-72
2022/03/03 00:06:54;;;;;;;82.55;46.45;;;;;;;;;;4973980;28;20031;-72
2022/03/03 00:09:20;;;;;;;45.25;26.58;;;;;;;;;;4975089;28;20026;-72
2022/03/03 00:11:50;;;;;;;38.83;24.60;;;;;;;;;;4980150;28;20046;-72
2022/03/03 00:14:16;;;;;;;35.58;22.02;;;;;;;;;;4980405;28;20488;-72
2022/03/03 00:16:45;;;;;;;34.47;21.48;;;;;;;;;;4980347;28;20022;-72
2022/03/03 00:19:12;;;;;;;66.00;31.90;;;;;;;;;;4962004;28;20196;-73
2022/03/03 00:21:38;;;;;;;60.30;32.95;;;;;;;;;;4971836;28;20022;-73
2022/03/03 00:24:04;;;;;;;58.05;31.65;;;;;;;;;;4977262;28;20046;-71
2022/03/03 00:26:31;;;;;;;50.55;27.75;;;;;;;;;;4975175;28;20037;-71
2022/03/03 00:28:57;;;;;;;56.60;30.38;;;;;;;;;;4978583;28;20023;-71
2022/03/03 00:31:23;;;;;;;63.90;32.95;;;;;;;;;;4978921;28;20070;-71
2022/03/03 00:33:49;;;;;;;65.63;32.40;;;;;;;;;;4965175;29;20051;-72
2022/03/03 00:36:16;;;;;;;70.10;35.35;;;;;;;;;;4977974;28;20037;-71
2022/03/03 00:38:42;;;;;;;64.70;32.90;;;;;;;;;;4980147;28;20027;-71
2022/03/03 00:41:08;;;;;;;60.90;32.05;;;;;;;;;;4974426;28;20023;-71
2022/03/03 00:43:34;;;;;;;74.93;36.33;;;;;;;;;;4982733;28;20031;-73
2022/03/03 00:46:00;;;;;;;51.72;26.48;;;;;;;;;;4980058;28;20513;-72
2022/03/03 00:48:26;;;;;;;44.55;24.73;;;;;;;;;;4978644;28;20465;-72
2022/03/03 00:50:52;;;;;;;32.13;17.88;;;;;;;;;;4982401;28;20078;-72
2022/03/03 00:53:19;;;;;;;31.42;20.75;;;;;;;;;;4985042;28;20018;-73
2022/03/03 00:55:45;;;;;;;33.08;19.58;;;;;;;;;;4985129;28;20015;-72
2022/03/03 00:58:13;;;;;;;31.05;18.55;;;;;;;;;;4986698;28;20031;-73
2022/03/03 01:00:41;;;;;;;30.70;19.63;;;;;;;;;;4966764;28;20039;-72
2022/03/03 01:03:07;;;;;;;27.48;18.00;;;;;;;;;;4976775;28;20126;-71
2022/03/03 01:05:33;;;;;;;29.70;18.38;;;;;;;;;;4979461;28;20436;-72
2022/03/03 01:08:02;;;;;;;27.88;18.65;;;;;;;;;;4979128;28;20033;-72
2022/03/03 01:10:28;;;;;;;29.85;17.77;;;;;;;;;;4981059;28;20061;-72
2022/03/03 01:12:55;;;;;;;27.52;18.75;;;;;;;;;;4981265;28;20027;-72
2022/03/03 01:15:21;;;;;;;29.27;19.15;;;;;;;;;;4979545;28;20034;-71
2022/03/03 01:17:47;;;;;;;28.00;18.20;;;;;;;;;;4970583;28;20023;-72
2022/03/03 01:20:13;;;;;;;29.45;18.05;;;;;;;;;;4960057;29;20179;-72
2022/03/03 01:22:39;;;;;;;27.63;17.70;;;;;;;;;;4979176;28;20042;-71
2022/03/03 01:25:05;;;;;;;27.90;17.65;;;;;;;;;;4978400;28;20034;-72
2022/03/03 01:27:32;;;;;;;33.83;20.38;;;;;;;;;;4980474;28;20031;-73
2022/03/03 01:29:59;;;;;;;32.97;19.63;;;;;;;;;;4983100;28;20441;-73
2022/03/03 01:32:25;;;;;;;28.48;18.70;;;;;;;;;;4980255;28;20035;-74
2022/03/03 01:34:53;;;;;;;35.13;18.75;;;;;;;;;;4982347;28;20010;-72
2022/03/03 01:37:19;;;;;;;31.90;18.80;;;;;;;;;;4983872;28;20159;-72
2022/03/03 01:39:47;;;;;;;26.33;17.20;;;;;;;;;;4983051;28;20019;-72
2022/03/03 01:42:15;;;;;;;31.05;19.80;;;;;;;;;;4969799;28;20035;-71
2022/03/03 01:44:42;;;;;;;35.72;20.73;;;;;;;;;;4985797;28;20027;-71
2022/03/03 01:47:15;;;;;;;32.97;21.92;;;;;;;;;;4979465;28;20042;-71
2022/03/03 01:49:41;;;;;;;30.42;20.13;;;;;;;;;;4963733;29;20019;-71
2022/03/03 01:52:07;;;;;;;36.65;22.98;;;;;;;;;;4962414;29;20031;-72
2022/03/03 01:54:33;;;;;;;33.65;20.00;;;;;;;;;;4982920;28;20054;-71
2022/03/03 01:57:00;;;;;;;32.33;20.42;;;;;;;;;;4984095;28;20027;-72
2022/03/03 01:59:26;;;;;;;34.22;20.88;;;;;;;;;;4964044;29;20035;-71
2022/03/03 02:01:52;;;;;;;34.33;22.55;;;;;;;;;;4977360;28;20029;-72
2022/03/03 02:04:18;;;;;;;28.50;19.85;;;;;;;;;;4975511;28;20030;-71
2022/03/03 02:06:53;;;;;;;31.38;18.65;;;;;;;;;;4983867;28;20039;-72
2022/03/03 02:09:20;;;;;;;35.75;21.63;;;;;;;;;;4940525;29;20032;-72
2022/03/03 02:11:47;;;;;;;32.83;21.52;;;;;;;;;;4940985;29;20393;-72
2022/03/03 02:14:13;;;;;;;32.55;21.85;;;;;;;;;;4943197;29;20034;-72
2022/03/03 02:16:39;;;;;;;33.03;19.98;;;;;;;;;;4957275;29;20031;-72
2022/03/03 02:19:06;;;;;;;27.58;16.83;;;;;;;;;;4960839;29;20043;-72
2022/03/03 02:21:32;;;;;;;26.42;17.60;;;;;;;;;;4963244;29;20023;-72
2022/03/03 02:23:58;;;;;;;29.50;17.85;;;;;;;;;;4960235;29;20078;-73
2022/03/03 02:26:25;;;;;;;26.98;16.77;;;;;;;;;;4964156;29;20023;-72
2022/03/03 02:28:52;;;;;;;30.92;17.75;;;;;;;;;;4957269;29;20027;-72
2022/03/03 02:31:20;;;;;;;24.42;15.45;;;;;;;;;;4959484;29;20038;-70
2022/03/03 02:33:47;;;;;;;28.48;18.25;;;;;;;;;;4945466;29;20034;-72
2022/03/03 02:36:15;;;;;;;28.55;16.50;;;;;;;;;;4958683;29;20094;-72
2022/03/03 02:38:41;;;;;;;28.35;16.58;;;;;;;;;;4963484;29;20106;-72
2022/03/03 02:41:07;;;;;;;27.95;17.42;;;;;;;;;;4955868;29;20035;-71
2022/03/03 02:43:33;;;;;;;31.98;17.65;;;;;;;;;;4957109;29;20031;-72
2022/03/03 02:46:01;;;;;;;28.45;17.20;;;;;;;;;;4940786;29;20470;-71
2022/03/03 02:48:30;;;;;;;26.08;17.30;;;;;;;;;;4942234;29;20068;-71
2022/03/03 02:50:57;;;;;;;27.33;17.73;;;;;;;;;;4942927;29;20090;-71
2022/03/03 02:53:27;;;;;;;27.55;17.10;;;;;;;;;;4943964;29;20099;-72
2022/03/03 02:55:54;;;;;;;28.23;17.05;;;;;;;;;;4963212;29;20046;-72
2022/03/03 02:58:20;;;;;;;30.13;16.77;;;;;;;;;;4961098;29;20082;-72
2022/03/03 03:00:47;;;;;;;30.83;18.13;;;;;;;;;;4955248;29;20394;-72
2022/03/03 03:03:16;;;;;;;26.65;16.30;;;;;;;;;;4948101;29;20028;-72
2022/03/03 03:05:42;;;;;;;29.77;17.85;;;;;;;;;;4949788;29;20031;-72
2022/03/03 03:08:09;;;;;;;26.10;16.70;;;;;;;;;;4960235;29;20042;-72
2022/03/03 03:10:36;;;;;;;27.17;16.95;;;;;;;;;;4927135;29;20481;-71
2022/03/03 03:13:05;;;;;;;28.42;17.25;;;;;;;;;;4945100;29;20027;-72
2022/03/03 03:15:31;;;;;;;28.30;17.45;;;;;;;;;;4960710;29;20027;-71
2022/03/03 03:18:08;;;;;;;28.55;17.42;;;;;;;;;;4960341;29;20067;-71
2022/03/03 03:20:39;;;;;;;26.30;16.58;;;;;;;;;;4960873;29;20040;-72
2022/03/03 03:23:09;;;;;;;27.65;16.58;;;;;;;;;;4960026;29;20039;-72
2022/03/03 03:25:37;;;;;;;26.55;16.50;;;;;;;;;;4940506;29;20243;-71
2022/03/03 03:28:05;;;;;;;25.85;16.63;;;;;;;;;;4952510;29;20126;-72
2022/03/03 03:30:31;;;;;;;27.55;16.75;;;;;;;;;;4940242;29;20385;-71
2022/03/03 03:32:57;;;;;;;32.05;17.15;;;;;;;;;;4942275;29;20400;-71
2022/03/03 03:35:24;;;;;;;27.55;16.73;;;;;;;;;;4952487;29;20050;-72
2022/03/03 03:37:51;;;;;;;26.77;17.65;;;;;;;;;;4962338;29;20031;-71
2022/03/03 03:40:20;;;;;;;26.75;17.25;;;;;;;;;;4946317;29;20381;-72
2022/03/03 03:42:48;;;;;;;31.55;18.15;;;;;;;;;;4961472;29;20038;-71
2022/03/03 03:45:14;;;;;;;51.42;24.02;;;;;;;;;;4941557;29;20047;-72
2022/03/03 03:47:41;;;;;;;38.20;21.77;;;;;;;;;;4960164;29;20103;-72
2022/03/03 03:50:08;;;;;;;44.53;22.67;;;;;;;;;;4958202;29;20066;-72
2022/03/03 03:52:38;;;;;;;49.97;25.48;;;;;;;;;;4959773;29;20027;-73
2022/03/03 03:55:05;;;;;;;49.67;25.25;;;;;;;;;;4959642;29;20035;-72
2022/03/03 03:57:32;;;;;;;45.83;22.42;;;;;;;;;;4957471;29;20105;-72
2022/03/03 03:59:58;;;;;;;36.17;19.40;;;;;;;;;;4941967;29;20054;-73
2022/03/03 04:02:27;;;;;;;44.33;22.45;;;;;;;;;;4959227;29;20544;-71
2022/03/03 04:04:53;;;;;;;38.13;21.42;;;;;;;;;;4960056;29;20086;-71
2022/03/03 04:07:19;;;;;;;40.60;20.60;;;;;;;;;;4960601;29;20035;-72
2022/03/03 04:09:47;;;;;;;41.28;20.45;;;;;;;;;;4936562;29;20402;-73
2022/03/03 04:12:15;;;;;;;36.67;20.33;;;;;;;;;;4961177;29;20027;-71
2022/03/03 04:14:41;;;;;;;32.47;18.45;;;;;;;;;;4960899;29;20038;-72
2022/03/03 04:17:08;;;;;;;37.65;20.52;;;;;;;;;;4958220;29;20031;-72
2022/03/03 04:19:35;;;;;;;42.65;20.65;;;;;;;;;;4946984;29;20102;-72
2022/03/03 04:22:01;;;;;;;34.47;19.23;;;;;;;;;;4940046;29;20040;-72
2022/03/03 04:24:27;;;;;;;35.30;21.02;;;;;;;;;;4947165;29;20027;-71
2022/03/03 04:26:54;;;;;;;84.60;47.00;;;;;;;;;;4960494;29;20175;-72
2022/03/03 04:29:21;;;;;;;62.35;39.88;;;;;;;;;;4960427;29;20404;-73
2022/03/03 04:31:48;;;;;;;48.40;30.85;;;;;;;;;;4960859;29;20102;-73
2022/03/03 04:34:14;;;;;;;36.10;22.40;;;;;;;;;;4949196;29;20479;-72
2022/03/03 04:36:40;;;;;;;35.25;20.42;;;;;;;;;;4957477;29;20031;-72
2022/03/03 04:39:06;;;;;;;36.00;21.55;;;;;;;;;;4947104;29;20035;-72
2022/03/03 04:41:32;;;;;;;38.38;20.73;;;;;;;;;;4957159;29;20030;-71
2022/03/03 04:43:58;;;;;;;37.67;22.17;;;;;;;;;;4960954;29;20031;-72
2022/03/03 04:46:24;;;;;;;43.40;25.98;;;;;;;;;;4956371;29;20102;-73
2022/03/03 04:48:50;;;;;;;55.00;32.63;;;;;;;;;;4955638;29;20030;-73
2022/03/03 04:51:16;;;;;;;43.00;26.85;;;;;;;;;;4944448;29;20042;-71
2022/03/03 04:53:42;;;;;;;42.17;24.58;;;;;;;;;;4934483;29;20086;-72
2022/03/03 04:56:09;;;;;;;54.00;27.40;;;;;;;;;;4957717;29;20051;-72
2022/03/03 04:58:35;;;;;;;43.15;27.70;;;;;;;;;;4956095;29;20073;-71
2022/03/03 05:01:01;;;;;;;45.50;24.13;;;;;;;;;;4956603;29;20042;-72
2022/03/03 05:03:27;;;;;;;40.75;24.00;;;;;;;;;;4951538;29;20058;-71
2022/03/03 05:05:53;;;;;;;38.78;22.45;;;;;;;;;;4955738;29;20534;-72
2022/03/03 05:08:19;;;;;;;35.83;20.70;;;;;;;;;;4957346;28;20034;-71
2022/03/03 05:10:45;;;;;;;39.28;22.45;;;;;;;;;;4958038;29;20027;-71
2022/03/03 05:13:11;;;;;;;33.95;19.98;;;;;;;;;;4960943;29;20062;-71
2022/03/03 05:15:37;;;;;;;33.70;18.85;;;;;;;;;;4950241;28;20055;-74
2022/03/03 05:18:04;;;;;;;35.28;20.15;;;;;;;;;;4956973;28;20073;-74
2022/03/03 05:20:33;;;;;;;34.47;20.60;;;;;;;;;;4963910;28;20039;-76
2022/03/03 05:23:01;;;;;;;36.00;22.33;;;;;;;;;;4948430;29;20055;-75
2022/03/03 05:25:27;;;;;;;38.50;23.55;;;;;;;;;;4958987;28;20054;-76
2022/03/03 05:27:53;;;;;;;37.40;22.13;;;;;;;;;;4964128;28;20106;-76
2022/03/03 05:30:19;;;;;;;37.72;23.67;;;;;;;;;;4960836;28;20513;-71
2022/03/03 05:32:47;;;;;;;36.45;22.08;;;;;;;;;;4973464;29;20023;-71
2022/03/03 05:35:14;;;;;;;36.78;22.58;;;;;;;;;;4971352;28;20059;-72
2022/03/03 05:38:01;;;;;;;33.25;20.00;;;;;;;;;;4973179;29;20030;-72
2022/03/03 05:40:27;;;;;;;37.35;21.52;;;;;;;;;;4971368;29;20472;-71
2022/03/03 05:42:53;;;;;;;36.00;21.90;;;;;;;;;;4976232;28;20019;-75
2022/03/03 05:45:19;;;;;;;40.92;23.83;;;;;;;;;;4978130;28;20046;-71
2022/03/03 05:47:54;;;;;;;116.32;53.38;;;;;;;;;;4971647;29;20066;-71
2022/03/03 05:50:20;;;;;;;62.65;39.97;;;;;;;;;;4970206;28;20043;-72
2022/03/03 05:52:46;;;;;;;46.40;28.40;;;;;;;;;;4968492;28;20026;-75
2022/03/03 05:55:12;;;;;;;42.17;24.23;;;;;;;;;;4954827;28;20031;-74
2022/03/03 05:57:41;;;;;;;52.47;31.80;;;;;;;;;;4955740;28;20031;-74
2022/03/03 06:00:12;;;;;;;45.80;26.83;;;;;;;;;;4959534;28;20030;-75
2022/03/03 06:02:41;;;;;;;48.50;25.40;;;;;;;;;;4944252;28;20028;-75
2022/03/03 06:05:08;;;;;;;56.05;29.60;;;;;;;;;;4958289;28;20039;-75
2022/03/03 06:07:39;;;;;;;67.80;33.63;;;;;;;;;;4957856;28;20389;-74
2022/03/03 06:10:06;;;;;;;74.43;32.35;;;;;;;;;;4956407;28;20163;-75
2022/03/03 06:12:40;;;;;;;68.22;33.67;;;;;;;;;;4945257;28;20493;-75
2022/03/03 06:15:09;;;;;;;68.28;29.92;;;;;;;;;;4960438;28;20042;-72
2022/03/03 06:17:46;;;;;;;50.15;29.02;;;;;;;;;;4947281;29;20047;-74
2022/03/03 06:20:13;;;;;;;43.13;27.90;;;;;;;;;;4944582;28;20084;-74
2022/03/03 06:22:41;;;;;;;40.38;24.40;;;;;;;;;;4938505;29;20059;-78
2022/03/03 06:25:15;;;;;;;44.33;23.92;;;;;;;;;;4932620;29;20043;-73
2022/03/03 06:27:44;;;;;;;51.00;24.73;;;;;;;;;;4946257;29;20132;-74
2022/03/03 06:30:10;;;;;;;41.13;23.50;;;;;;;;;;4939671;29;20453;-71
2022/03/03 06:32:40;;;;;;;37.08;22.13;;;;;;;;;;4955211;29;20130;-74
2022/03/03 06:35:07;;;;;;;47.67;26.90;;;;;;;;;;4945699;29;20024;-75
2022/03/03 06:37:35;;;;;;;38.00;22.17;;;;;;;;;;4941620;29;20079;-73
2022/03/03 06:40:01;;;;;;;36.22;23.15;;;;;;;;;;4942784;29;20039;-71
2022/03/03 06:42:28;;;;;;;38.20;22.67;;;;;;;;;;4936948;29;20039;-72
2022/03/03 06:44:54;;;;;;;33.92;22.23;;;;;;;;;;4944200;29;20036;-74
2022/03/03 06:47:21;;;;;;;37.45;23.08;;;;;;;;;;4946550;29;20039;-76
2022/03/03 06:49:47;;;;;;;38.55;23.38;;;;;;;;;;4940507;29;20083;-72
2022/03/03 06:52:15;;;;;;;45.05;23.02;;;;;;;;;;4942395;29;20031;-74
2022/03/03 06:54:44;;;;;;;35.30;21.95;;;;;;;;;;4944889;29;20027;-73
2022/03/03 06:57:11;;;;;;;36.83;22.80;;;;;;;;;;4942394;29;20034;-75
2022/03/03 06:59:38;;;;;;;38.17;23.05;;;;;;;;;;4931563;29;20134;-72
2022/03/03 07:02:04;;;;;;;39.85;24.67;;;;;;;;;;4936927;29;20059;-75
2022/03/03 07:04:34;;;;;;;48.15;29.67;;;;;;;;;;4937471;29;20031;-72
2022/03/03 07:07:01;;;;;;;39.10;24.38;;;;;;;;;;4933203;29;20027;-71
2022/03/03 07:09:27;;;;;;;42.25;22.98;;;;;;;;;;4936931;29;20028;-71
2022/03/03 07:11:53;;;;;;;44.80;24.63;;;;;;;;;;4938594;29;20043;-74
2022/03/03 07:14:19;;;;;;;34.00;23.23;;;;;;;;;;4943949;29;20028;-71
2022/03/03 07:16:51;;;;;;;30.05;19.13;;;;;;;;;;4945827;29;20039;-74
2022/03/03 07:19:20;;;;;;;34.85;19.40;;;;;;;;;;4962839;28;20051;-70
2022/03/03 07:21:49;;;;;;;30.67;18.40;;;;;;;;;;4972196;28;20046;-73
2022/03/03 07:24:27;;;;;;;25.98;18.42;;;;;;;;;;4970894;28;20038;-69
2022/03/03 07:26:57;;;;;;;29.17;18.10;;;;;;;;;;4939376;29;20027;-75
2022/03/03 07:29:26;;;;;;;31.98;18.38;;;;;;;;;;4963338;29;20035;-74
2022/03/03 07:32:03;;;;;;;30.60;19.73;;;;;;;;;;4969571;28;20039;-73
2022/03/03 07:34:31;;;;;;;32.72;20.45;;;;;;;;;;4963268;29;20043;-72
2022/03/03 07:37:20;;;;;;;30.02;19.77;;;;;;;;;;4947268;29;20057;-76
2022/03/03 07:39:46;;;;;;;30.38;19.30;;;;;;;;;;4950497;28;20032;-76
2022/03/03 07:42:13;;;;;;;28.40;19.05;;;;;;;;;;4959654;28;20430;-78
2022/03/03 07:44:39;;;;;;;30.60;19.88;;;;;;;;;;4954732;28;20115;-83
2022/03/03 07:47:09;;;;;;;29.30;19.08;;;;;;;;;;4958966;28;20411;-76
2022/03/03 07:49:35;;;;;;;27.60;19.70;;;;;;;;;;4954567;28;20601;-78
2022/03/03 07:52:05;;;;;;;30.95;19.33;;;;;;;;;;4955323;29;20031;-76
2022/03/03 07:54:32;;;;;;;32.13;24.30;;;;;;;;;;4954405;28;20019;-76
2022/03/03 07:56:59;;;;;;;26.52;19.77;;;;;;;;;;4953882;28;20059;-73
2022/03/03 07:59:27;;;;;;;26.77;19.83;;;;;;;;;;4937289;29;20038;-76
2022/03/03 08:01:54;;;;;;;27.27;19.92;;;;;;;;;;4953247;28;20023;-78
2022/03/03 08:04:23;;;;;;;26.90;18.50;;;;;;;;;;4965776;28;20019;-78
2022/03/03 08:06:52;;;;;;;27.33;19.75;;;;;;;;;;4949712;28;20039;-75
2022/03/03 08:09:19;;;;;;;28.92;19.15;;;;;;;;;;4953476;28;20046;-74
2022/03/03 08:11:47;;;;;;;30.63;19.90;;;;;;;;;;4966647;28;20089;-79
2022/03/03 08:14:14;;;;;;;30.45;20.88;;;;;;;;;;4963787;28;20027;-73
2022/03/03 08:16:42;;;;;;;30.73;20.58;;;;;;;;;;4951240;28;20038;-78
2022/03/03 08:19:10;;;;;;;32.05;21.40;;;;;;;;;;4956322;28;20138;-77
2022/03/03 08:21:37;;;;;;;32.17;22.08;;;;;;;;;;4954976;28;20027;-76
2022/03/03 08:24:04;;;;;;;28.90;20.50;;;;;;;;;;4953377;28;20182;-77
2022/03/03 08:26:31;;;;;;;26.48;20.33;;;;;;;;;;4954867;28;20070;-76
2022/03/03 08:28:57;;;;;;;32.50;20.92;;;;;;;;;;4948745;28;20027;-79
2022/03/03 08:31:34;;;;;;;28.67;20.15;;;;;;;;;;4953855;28;20667;-71
2022/03/03 08:34:12;;;;;;;30.02;19.52;;;;;;;;;;4930638;29;20062;-71
2022/03/03 08:36:44;;;;;;;26.15;17.70;;;;;;;;;;4953590;28;20023;-71
2022/03/03 08:39:11;;;;;;;28.15;17.98;;;;;;;;;;4957380;28;20133;-71
2022/03/03 08:41:40;;;;;;;29.17;17.55;;;;;;;;;;4955484;28;20031;-72
2022/03/03 08:44:07;;;;;;;28.55;18.88;;;;;;;;;;4948036;28;20035;-71
2022/03/03 08:46:34;;;;;;;28.60;18.45;;;;;;;;;;4949715;28;20038;-73
2022/03/03 08:49:01;;;;;;;32.45;22.33;;;;;;;;;;4954360;28;20094;-76
2022/03/03 08:51:28;;;;;;;38.25;28.50;;;;;;;;;;4953255;28;20039;-72
2022/03/03 08:53:55;;;;;;;27.63;20.42;;;;;;;;;;4948138;28;20478;-76
2022/03/03 08:56:23;;;;;;;34.88;26.75;;;;;;;;;;4958103;28;20037;-74
2022/03/03 08:58:49;;;;;;;33.60;25.20;;;;;;;;;;4952795;28;20028;-75
2022/03/03 09:01:15;;;;;;;34.20;23.08;;;;;;;;;;4955824;28;20473;-76
2022/03/03 09:03:43;;;;;;;25.00;17.60;;;;;;;;;;4955145;28;20476;-74
2022/03/03 09:06:13;;;;;;;32.50;19.15;;;;;;;;;;4956843;28;20042;-73
2022/03/03 09:08:52;;;;;;;27.08;19.88;;;;;;;;;;4961981;28;20092;-72
2022/03/03 09:11:20;;;;;;;26.35;18.98;;;;;;;;;;4936913;29;20043;-75
2022/03/03 09:13:47;;;;;;;25.80;17.85;;;;;;;;;;4957589;28;20082;-73
2022/03/03 09:16:13;;;;;;;26.98;17.48;;;;;;;;;;4956073;28;20496;-74
2022/03/03 09:18:39;;;;;;;25.95;16.73;;;;;;;;;;4937465;29;20401;-75
2022/03/03 09:21:07;;;;;;;29.80;18.50;;;;;;;;;;4961145;28;20059;-75
2022/03/03 09:23:33;;;;;;;28.20;17.33;;;;;;;;;;4956547;28;20031;-74
2022/03/03 09:25:59;;;;;;;29.02;17.58;;;;;;;;;;4954282;28;20094;-75
2022/03/03 09:28:25;;;;;;;29.17;16.73;;;;;;;;;;4969910;28;20023;-73
2022/03/03 09:30:57;;;;;;;27.95;16.65;;;;;;;;;;4973284;29;20019;-75
2022/03/03 09:33:24;;;;;;;25.08;16.83;;;;;;;;;;4939078;29;20055;-74
2022/03/03 09:35:50;;;;;;;23.80;15.35;;;;;;;;;;4966041;28;20137;-73
2022/03/03 09:38:17;;;;;;;24.52;15.32;;;;;;;;;;4952257;28;20059;-73
2022/03/03 09:40:48;;;;;;;28.95;14.52;;;;;;;;;;4957654;28;20023;-71
2022/03/03 09:43:17;;;;;;;26.88;15.73;;;;;;;;;;4952770;28;20054;-75
2022/03/03 09:45:44;;;;;;;26.88;17.13;;;;;;;;;;4949732;28;20094;-74
2022/03/03 09:48:10;;;;;;;28.30;19.35;;;;;;;;;;4960289;28;20118;-70
2022/03/03 09:50:38;;;;;;;23.08;16.00;;;;;;;;;;4963574;28;20458;-71
2022/03/03 09:53:11;;;;;;;27.80;17.73;;;;;;;;;;4956186;28;20023;-71
2022/03/03 09:55:40;;;;;;;29.70;18.15;;;;;;;;;;4969679;28;20031;-73
2022/03/03 09:58:11;;;;;;;24.33;15.95;;;;;;;;;;4958890;28;20031;-75
2022/03/03 10:00:40;;;;;;;37.22;20.52;;;;;;;;;;4941540;28;20032;-70
2022/03/03 10:03:09;;;;;;;30.55;19.30;;;;;;;;;;4956178;28;20504;-70
2022/03/03 10:05:37;;;;;;;29.65;18.95;;;;;;;;;;4943565;28;20082;-69
2022/03/03 10:08:04;;;;;;;25.48;16.67;;;;;;;;;;4943310;28;20102;-71
2022/03/03 10:10:31;;;;;;;31.33;17.73;;;;;;;;;;4957899;28;20026;-70
2022/03/03 10:13:00;;;;;;;27.67;19.00;;;;;;;;;;4961372;28;20019;-71
2022/03/03 10:15:29;;;;;;;41.75;27.20;;;;;;;;;;4965654;28;20026;-71
2022/03/03 10:17:56;;;;;;;54.17;33.92;;;;;;;;;;4958655;28;20512;-72
2022/03/03 10:20:22;;;;;;;55.45;36.20;;;;;;;;;;4960853;28;20067;-70
2022/03/03 10:22:59;;;;;;;43.05;28.30;;;;;;;;;;4962151;28;20027;-69
2022/03/03 10:25:30;;;;;;;39.42;27.13;;;;;;;;;;4969608;28;20061;-70
2022/03/03 10:27:56;;;;;;;28.55;18.98;;;;;;;;;;4971985;28;20366;-70
2022/03/03 10:30:22;;;;;;;28.95;17.95;;;;;;;;;;4958714;28;20393;-70
2022/03/03 10:32:48;;;;;;;24.67;16.88;;;;;;;;;;4962214;28;20109;-71
2022/03/03 10:35:16;;;;;;;28.85;16.48;;;;;;;;;;4965837;28;20069;-71
2022/03/03 10:37:48;;;;;;;24.77;15.90;;;;;;;;;;4962282;28;20023;-72
2022/03/03 10:40:17;;;;;;;25.08;16.73;;;;;;;;;;4958144;28;20110;-69
2022/03/03 10:42:50;;;;;;;30.25;18.55;;;;;;;;;;4958040;28;20022;-72
2022/03/03 10:45:19;;;;;;;27.07;18.60;;;;;;;;;;4964778;28;20023;-74
2022/03/03 10:48:06;;;;;;;34.05;21.90;;;;;;;;;;4963241;28;20360;-68
2022/03/03 10:50:49;;;;;;;26.90;17.77;;;;;;;;;;4958797;28;20026;-72
2022/03/03 10:53:21;;;;;;;26.92;18.55;;;;;;;;;;4972822;28;20018;-73
2022/03/03 10:56:00;;;;;;;33.60;21.55;;;;;;;;;;4957840;28;20481;-68
2022/03/03 10:58:45;;;;;;;31.65;19.17;;;;;;;;;;4940691;29;20075;-70
2022/03/03 11:01:14;;;;;;;31.95;19.48;;;;;;;;;;4955649;28;20114;-69
2022/03/03 11:03:40;;;;;;;30.02;19.60;;;;;;;;;;4969519;28;20022;-75
2022/03/03 11:06:09;;;;;;;29.45;18.50;;;;;;;;;;4945016;28;20046;-75
2022/03/03 11:08:36;;;;;;;29.10;16.80;;;;;;;;;;4946589;28;20023;-72
2022/03/03 11:11:03;;;;;;;25.45;17.63;;;;;;;;;;4963394;28;20467;-71
2022/03/03 11:13:29;;;;;;;30.98;17.60;;;;;;;;;;4976547;28;20011;-75
2022/03/03 11:15:57;;;;;;;31.98;18.23;;;;;;;;;;4950552;29;20108;-75
2022/03/03 11:18:30;;;;;;;34.40;22.88;;;;;;;;;;4948799;28;20105;-70
2022/03/03 11:21:12;;;;;;;29.02;19.25;;;;;;;;;;4924047;29;20043;-73
2022/03/03 11:24:08;;;;;;;32.25;20.35;;;;;;;;;;4952788;29;20032;-72
2022/03/03 11:26:56;;;;;;;32.00;19.88;;;;;;;;;;4937734;29;20066;-72
2022/03/03 11:29:29;;;;;;;45.15;26.15;;;;;;;;;;4929941;29;20050;-74
2022/03/03 11:32:17;;;;;;;73.10;38.03;;;;;;;;;;4940847;29;20028;-72
2022/03/03 11:34:51;;;;;;;28.55;18.30;;;;;;;;;;4941486;29;20040;-72
2022/03/03 11:37:24;;;;;;;37.95;22.38;;;;;;;;;;4951889;29;20043;-75
2022/03/03 11:40:02;;;;;;;31.90;19.95;;;;;;;;;;4948028;29;20015;-76
2022/03/03 11:42:35;;;;;;;69.30;37.05;;;;;;;;;;4954350;29;20568;-77
2022/03/03 11:45:19;;;;;;;40.47;25.40;;;;;;;;;;4942651;29;20143;-75
2022/03/03 11:47:48;;;;;;;27.38;19.00;;;;;;;;;;4941245;29;20103;-79
2022/03/03 11:50:17;;;;;;;42.40;27.83;;;;;;;;;;4955633;29;20024;-75
2022/03/03 11:52:52;;;;;;;33.20;19.65;;;;;;;;;;4950303;29;20023;-76
2022/03/03 11:55:39;;;;;;;31.38;18.60;;;;;;;;;;4944798;29;20020;-76
2022/03/03 11:58:06;;;;;;;28.52;17.60;;;;;;;;;;4936602;29;20501;-75
2022/03/03 12:00:38;;;;;;;28.10;17.90;;;;;;;;;;4940149;29;20047;-77
2022/03/03 12:03:06;;;;;;;28.83;18.73;;;;;;;;;;4936413;29;20461;-73
2022/03/03 12:05:36;;;;;;;30.50;18.73;;;;;;;;;;4934681;29;20028;-75
2022/03/03 12:08:27;;;;;;;27.95;18.67;;;;;;;;;;4936073;29;20039;-70
2022/03/03 12:11:13;;;;;;;37.72;21.92;;;;;;;;;;4934234;29;20023;-75
2022/03/03 12:13:39;;;;;;;46.50;27.65;;;;;;;;;;4933521;29;20036;-75
2022/03/03 12:16:32;;;;;;;36.50;21.13;;;;;;;;;;4946262;29;20027;-78
2022/03/03 12:19:02;;;;;;;36.92;22.77;;;;;;;;;;4951372;29;20091;-71
2022/03/03 12:21:33;;;;;;;31.15;20.75;;;;;;;;;;4955825;28;20494;-73
2022/03/03 12:24:14;;;;;;;35.20;21.80;;;;;;;;;;4972465;28;20030;-73
2022/03/03 12:26:55;;;;;;;28.83;19.38;;;;;;;;;;4967868;28;20071;-74
2022/03/03 12:29:35;;;;;;;32.13;21.13;;;;;;;;;;4952475;29;20042;-74
2022/03/03 12:32:20;;;;;;;37.03;23.65;;;;;;;;;;4954251;29;20035;-74
2022/03/03 12:34:46;;;;;;;32.22;18.75;;;;;;;;;;4972337;29;20039;-74
2022/03/03 12:37:15;;;;;;;26.52;18.27;;;;;;;;;;4966735;28;20109;-76
2022/03/03 12:40:10;;;;;;;29.90;20.17;;;;;;;;;;4969782;29;20023;-74
2022/03/03 12:42:38;;;;;;;31.98;20.85;;;;;;;;;;4885386;29;20036;-78
2022/03/03 12:45:07;;;;;;;37.42;22.77;;;;;;;;;;4874747;29;20045;-78
2022/03/03 12:47:51;;;;;;;31.58;18.73;;;;;;;;;;4855330;29;20045;-72
2022/03/03 12:50:18;;;;;;;;;;;;;;;;;;4887985;29;20025;-72
2022/03/03 12:52:55;;;;;;;38.75;22.35;;;;;;;;;;4878357;29;19911;-73
2022/03/03 12:55:26;;;;;;;32.97;21.67;;;;;;;;;;4876034;29;20043;-72
2022/03/03 12:57:52;;;;;;;30.27;20.80;;;;;;;;;;4878703;29;20523;-73
2022/03/03 13:00:19;;;;;;;31.08;21.02;;;;;;;;;;4877131;29;20448;-73
2022/03/03 13:02:55;;;;;;;31.15;20.88;;;;;;;;;;4885795;29;20111;-71
2022/03/03 13:05:40;;;;;;;31.00;20.27;;;;;;;;;;4880241;29;20033;-74
2022/03/03 13:08:07;;;;;;;41.63;24.83;;;;;;;;;;4827954;29;20166;-76
2022/03/03 13:10:34;;;;;;;30.38;19.50;;;;;;;;;;4821085;29;20095;-73
2022/03/03 13:13:01;;;;;;;27.58;19.20;;;;;;;;;;4835319;29;20057;-74
2022/03/03 13:15:31;;;;;;;32.10;19.15;;;;;;;;;;4833888;29;20034;-74
2022/03/03 13:17:58;;;;;;;27.42;18.92;;;;;;;;;;4853271;29;20470;-77
2022/03/03 13:20:25;;;;;;;25.33;17.65;;;;;;;;;;4906187;29;20043;-77
2022/03/03 13:22:51;;;;;;;27.13;18.73;;;;;;;;;;4897593;29;20053;-72
2022/03/03 13:25:18;;;;;;;34.25;21.45;;;;;;;;;;4907179;29;20021;-71
2022/03/03 13:27:45;;;;;;;31.95;20.40;;;;;;;;;;4905415;29;20143;-71
2022/03/03 13:30:12;;;;;;;37.30;22.25;;;;;;;;;;4904762;29;20045;-72
2022/03/03 13:32:44;;;;;;;31.13;20.42;;;;;;;;;;4910382;29;20024;-71
2022/03/03 13:35:11;;;;;;;28.47;20.23;;;;;;;;;;4903277;29;20104;-73
2022/03/03 13:37:37;;;;;;;23.83;16.08;;;;;;;;;;4904898;29;20029;-71
2022/03/03 13:40:32;;;;;;;29.83;20.55;;;;;;;;;;4960822;29;20039;-74
2022/03/03 13:42:59;;;;;;;28.83;17.83;;;;;;;;;;4887153;29;20056;-69
2022/03/03 13:45:30;;;;;;;30.80;20.80;;;;;;;;;;4887998;29;20036;-70
2022/03/03 13:48:03;;;;;;;29.45;19.00;;;;;;;;;;4896344;29;20395;-69
2022/03/03 13:50:29;;;;;;;31.50;19.45;;;;;;;;;;4887310;29;20526;-69
2022/03/03 13:53:11;;;;;;;28.70;18.27;;;;;;;;;;4906879;29;20051;-69
2022/03/03 13:55:37;;;;;;;30.20;17.48;;;;;;;;;;4900949;29;20082;-69
2022/03/03 13:58:05;;;;;;;28.02;18.63;;;;;;;;;;4906258;29;20036;-69
2022/03/03 14:00:43;;;;;;;29.73;20.55;;;;;;;;;;4900498;29;20048;-69
2022/03/03 14:03:13;;;;;;;50.45;29.70;;;;;;;;;;4891146;29;20033;-68
2022/03/03 14:05:53;;;;;;;36.55;24.25;;;;;;;;;;4893851;29;20055;-70
2022/03/03 14:08:30;;;;;;;30.63;20.25;;;;;;;;;;4890001;29;20542;-71
2022/03/03 14:10:56;;;;;;;42.65;28.00;;;;;;;;;;4901630;29;20132;-69
2022/03/03 14:13:25;;;;;;;85.70;53.33;;;;;;;;;;4892002;29;20130;-69
2022/03/03 14:15:54;;;;;;;40.58;26.52;;;;;;;;;;4893066;29;20044;-69
2022/03/03 14:18:21;;;;;;;33.70;19.98;;;;;;;;;;4897248;29;20033;-69
2022/03/03 14:20:49;;;;;;;33.92;21.80;;;;;;;;;;4965594;29;20051;-69
2022/03/03 14:23:16;;;;;;;33.10;22.92;;;;;;;;;;4965526;29;20406;-69
2022/03/03 14:25:42;;;;;;;33.92;20.50;;;;;;;;;;4950214;29;20038;-69
2022/03/03 14:28:09;;;;;;;29.67;19.40;;;;;;;;;;4967383;28;20035;-70